Weather History for Newton, KS

Change the Weather History Date:

Wednesday, January 1, 2014

  Actual Average Record
Temperature  
Mean Temperature 22 °F -  
Max Temperature 35 °F 40 °F 64 °F (2005)
Min Temperature 10 °F 21 °F 6 °F (2001)
Degree Days  
Heating Degree Days 42    
Moisture  
Dew Point 14 °F    
Average Humidity 71    
Maximum Humidity 80    
Minimum Humidity 59    
Precipitation  
Precipitation 0.00 in - - ()
Sea Level Pressure  
Sea Level Pressure 30.10 in    
Wind  
Wind Speed 15 mph (NNE)    
Max Wind Speed 28 mph    
Max Gust Speed 34 mph    
Visibility 9 miles    
Events      
Averages and records for this station are not official NWS values.
T = Trace of Precipitation, MM = Missing Value Source: NWS Daily Summary

Daily Weather History Graph

Daily Weather History Graph

Search for Another Location

Airport:

Trip Planner

Search our weather history database for the weather conditions in past years. The results will help you decide how hot, cold, wet, or windy it might be!

Date:

Astronomy

Jan. 01, 2014 Rise Set
Actual Time 7:45 AM CST 5:20 PM CST
Civil Twilight 7:15 AM CST 5:49 PM CST
Nautical Twilight 6:43 AM CST 6:22 PM CST
Astronomical Twilight 6:11 AM CST 6:54 PM CST
Moon 7:37 AM CST (1/1) 6:05 PM CST (1/1)
Length of Visible Light 10h 33m
Length of Day
9h 34m
New Moon, 0% of the Moon is Illuminated
Jan 1
New Moon
Jan 7
First Quarter
Jan 15
Full
Jan 23
Last Quarter
Jan 30
New

Hourly Weather History & Observations

Time (CST) Temp. Windchill Dew Point Humidity Pressure Visibility Wind Dir Wind Speed Gust Speed Precip Events Conditions
12:15 AM 35.6 °F 26.2 °F 24.8 °F 65% 30.03 in 10.0 mi SSW 15.0 mph - N/A   Clear
12:35 AM 35.6 °F 26.6 °F 24.8 °F 65% 30.02 in 10.0 mi South 13.8 mph - N/A   Clear
12:55 AM 35.6 °F 28.0 °F 23.0 °F 60% 30.02 in 10.0 mi South 10.4 mph - N/A   Clear
1:15 AM 35.6 °F 26.6 °F 23.0 °F 60% 30.00 in 10.0 mi South 13.8 mph - N/A   Clear
1:35 AM 35.6 °F 26.2 °F 23.0 °F 60% 29.98 in 10.0 mi South 15.0 mph - N/A   Clear
1:55 AM 35.6 °F 26.2 °F 24.8 °F 65% 29.98 in 10.0 mi South 15.0 mph 20.7 mph N/A   Clear
2:15 AM 35.6 °F 27.5 °F 23.0 °F 60% 29.99 in 10.0 mi South 11.5 mph - N/A   Clear
2:35 AM 33.8 °F 26.4 °F 23.0 °F 65% 29.99 in 10.0 mi South 9.2 mph - N/A   Clear
2:55 AM 33.8 °F 26.4 °F 23.0 °F 65% 29.99 in 10.0 mi South 9.2 mph - N/A   Clear
3:15 AM 32.0 °F 24.2 °F 23.0 °F 69% 29.99 in 10.0 mi South 9.2 mph - N/A   Clear
3:35 AM 32.0 °F 24.2 °F 23.0 °F 69% 29.98 in 10.0 mi South 9.2 mph - N/A   Clear
3:55 AM 33.8 °F 27.7 °F 23.0 °F 65% 29.98 in 10.0 mi South 6.9 mph - N/A   Clear
4:15 AM 30.2 °F 24.3 °F 21.2 °F 69% 29.98 in 10.0 mi SSE 5.8 mph - N/A   Clear
4:35 AM 30.2 °F 25.4 °F 21.2 °F 69% 29.97 in 10.0 mi SSE 4.6 mph - N/A   Clear
4:55 AM 30.2 °F 23.4 °F 21.2 °F 69% 29.96 in 10.0 mi SSE 6.9 mph - N/A   Clear
5:15 AM 28.4 °F 22.2 °F 21.2 °F 74% 29.96 in 10.0 mi SE 5.8 mph - N/A   Clear
5:35 AM 28.4 °F 21.2 °F 21.2 °F 74% 29.95 in 10.0 mi SE 6.9 mph - N/A   Clear
5:55 AM 28.4 °F 21.2 °F 21.2 °F 74% 29.95 in 10.0 mi SE 6.9 mph - N/A   Clear
6:15 AM 26.6 °F 20.0 °F 19.4 °F 74% 29.96 in 10.0 mi East 5.8 mph - N/A   Clear
6:35 AM 26.6 °F 20.0 °F 19.4 °F 74% 29.96 in 10.0 mi East 5.8 mph - N/A   Clear
6:55 AM 24.8 °F 17.9 °F 17.6 °F 74% 29.96 in 10.0 mi East 5.8 mph - N/A   Clear
7:15 AM 24.8 °F 17.9 °F 19.4 °F 80% 29.97 in 10.0 mi East 5.8 mph - N/A   Clear
7:35 AM 26.6 °F 20.0 °F 19.4 °F 74% 29.97 in 10.0 mi East 5.8 mph - N/A   Clear
7:55 AM 26.6 °F 21.2 °F 21.2 °F 80% 29.99 in 10.0 mi NE 4.6 mph - N/A   Clear
8:15 AM 28.4 °F 23.3 °F 21.2 °F 74% 29.99 in 10.0 mi ENE 4.6 mph - N/A   Clear
8:35 AM 28.4 °F 20.4 °F 21.2 °F 74% 30.00 in 10.0 mi NNE 8.1 mph - N/A   Clear
8:55 AM 28.4 °F 18.5 °F 23.0 °F 80% 30.01 in 10.0 mi NNE 11.5 mph - N/A   Clear
9:15 AM 24.8 °F 12.9 °F 19.4 °F 80% 30.01 in 10.0 mi NNE 13.8 mph - N/A   Clear
9:35 AM 24.8 °F 13.4 °F 19.4 °F 80% 30.02 in 9.0 mi NNE 12.7 mph - N/A   Clear
9:55 AM 26.6 °F 13.4 °F 19.4 °F 74% 30.02 in 10.0 mi NNE 18.4 mph - N/A   Clear
10:15 AM 24.8 °F 11.9 °F 17.6 °F 74% 30.04 in 10.0 mi NNE 16.1 mph - N/A   Clear
10:35 AM 24.8 °F 10.3 °F 17.6 °F 74% 30.04 in 10.0 mi NNE 20.7 mph 24.2 mph N/A   Clear
10:55 AM 24.8 °F 11.1 °F 17.6 °F 74% 30.04 in 10.0 mi NNE 18.4 mph 25.3 mph N/A   Partly Cloudy
11:15 AM 24.8 °F 10.3 °F 15.8 °F 69% 30.04 in 10.0 mi NNE 20.7 mph 26.5 mph N/A   Clear
11:35 AM 24.8 °F 10.3 °F 15.8 °F 69% 30.03 in 10.0 mi NNE 20.7 mph - N/A   Clear
11:55 AM 23.0 °F 8.7 °F 14.0 °F 68% 30.02 in 10.0 mi North 18.4 mph 28.8 mph N/A   Clear
12:15 PM 24.8 °F 10.3 °F 15.8 °F 69% 30.01 in 10.0 mi NNE 20.7 mph 26.5 mph N/A   Clear
12:35 PM 26.6 °F 12.4 °F 15.8 °F 64% 30.00 in 10.0 mi NNE 21.9 mph 28.8 mph N/A   Clear
12:55 PM 26.6 °F 11.7 °F 15.8 °F 64% 30.01 in 10.0 mi NNE 24.2 mph 28.8 mph N/A   Clear
1:15 PM 26.6 °F 13.1 °F 15.8 °F 64% 30.03 in 10.0 mi North 19.6 mph 25.3 mph N/A   Clear
1:35 PM 24.8 °F 10.0 °F 14.0 °F 64% 30.03 in 10.0 mi North 21.9 mph 29.9 mph N/A   Partly Cloudy
1:55 PM 24.8 °F 11.5 °F 12.2 °F 59% 30.06 in 10.0 mi NNW 17.3 mph 24.2 mph N/A   Mostly Cloudy
2:15 PM 21.2 °F 4.5 °F 12.2 °F 68% 30.06 in 10.0 mi North 24.2 mph 28.8 mph N/A   Overcast
2:35 PM 21.2 °F 4.2 °F 10.4 °F 63% 30.07 in 10.0 mi North 25.3 mph 29.9 mph N/A   Overcast
2:55 PM 19.4 °F 1.8 °F 10.4 °F 68% 30.09 in 9.0 mi North 25.3 mph 29.9 mph N/A   Overcast
3:15 PM 19.4 °F 1.1 °F 10.4 °F 68% 30.10 in 8.0 mi North 27.6 mph 33.4 mph N/A   Overcast
3:35 PM 19.4 °F 1.8 °F 10.4 °F 68% 30.11 in 9.0 mi North 25.3 mph 33.4 mph N/A   Overcast
3:55 PM 17.6 °F 0.1 °F 8.6 °F 68% 30.13 in 10.0 mi North 23.0 mph 32.2 mph N/A   Overcast
4:15 PM 17.6 °F -0.6 °F 8.6 °F 68% 30.14 in 10.0 mi North 25.3 mph 31.1 mph N/A   Overcast
4:35 PM 15.8 °F -3.4 °F 6.8 °F 68% 30.15 in 10.0 mi North 26.5 mph 34.5 mph N/A   Overcast
4:55 PM 15.8 °F -2.7 °F 8.6 °F 73% 30.16 in 10.0 mi North 24.2 mph 33.4 mph N/A   Overcast
5:15 PM 14.0 °F -5.1 °F 3.2 °F 62% 30.18 in 5.0 mi North 24.2 mph 32.2 mph N/A   Scattered Clouds
5:35 PM 14.0 °F -5.5 °F 6.8 °F 73% 30.19 in 2.5 mi North 25.3 mph 29.9 mph N/A   Clear
5:55 PM 12.2 °F -5.8 °F 6.8 °F 79% 30.20 in 1.2 mi North 19.6 mph 29.9 mph N/A   Mostly Cloudy
6:15 PM 12.2 °F -6.7 °F 6.8 °F 79% 30.22 in 2.0 mi North 21.9 mph - N/A   Overcast
6:35 PM 12.2 °F -6.7 °F 3.2 °F 67% 30.24 in 3.0 mi North 21.9 mph 31.1 mph N/A   Overcast
6:55 PM 12.2 °F -6.3 °F 6.8 °F 79% 30.26 in 3.0 mi North 20.7 mph 26.5 mph N/A   Overcast
7:15 PM 12.2 °F -7.5 °F 5.0 °F 73% 30.26 in 2.5 mi North 24.2 mph 29.9 mph N/A   Overcast
7:35 PM 12.2 °F -7.5 °F 6.8 °F 79% 30.28 in 2.0 mi North 24.2 mph 28.8 mph N/A   Overcast
7:55 PM 12.2 °F -6.3 °F 6.8 °F 79% 30.29 in 1.0 mi North 20.7 mph 27.6 mph N/A   Overcast
8:15 PM 12.2 °F -5.8 °F 6.8 °F 79% 30.30 in 2.5 mi North 19.6 mph 27.6 mph N/A   Mostly Cloudy
8:35 PM 12.2 °F -5.8 °F 6.8 °F 79% 30.30 in 3.0 mi NNW 19.6 mph 27.6 mph N/A   Clear
8:55 PM 12.2 °F -6.3 °F 6.8 °F 79% 30.31 in 8.0 mi North 20.7 mph 26.5 mph N/A   Clear
9:15 PM 14.0 °F -3.4 °F 6.8 °F 73% 30.32 in 10.0 mi NNW 19.6 mph 26.5 mph N/A   Clear
9:35 PM 12.2 °F -5.8 °F 5.0 °F 73% 30.32 in 10.0 mi NNW 19.6 mph 25.3 mph N/A   Clear
9:55 PM 12.2 °F -6.3 °F 5.0 °F 73% 30.33 in 10.0 mi North 20.7 mph 26.5 mph N/A   Partly Cloudy
10:15 PM 12.2 °F -6.3 °F 5.0 °F 73% 30.33 in 10.0 mi North 20.7 mph 26.5 mph N/A   Clear
10:35 PM 12.2 °F -6.7 °F 3.2 °F 67% 30.34 in 10.0 mi North 21.9 mph - N/A   Clear
10:55 PM 10.4 °F -8.2 °F 3.2 °F 73% 30.35 in 10.0 mi North 19.6 mph 24.2 mph N/A   Clear
11:15 PM 10.4 °F -7.7 °F 3.2 °F 73% 30.35 in 10.0 mi NNW 18.4 mph - N/A   Clear
11:35 PM 10.4 °F -6.6 °F 3.2 °F 73% 30.35 in 10.0 mi North 16.1 mph - N/A   Clear
11:55 PM 10.4 °F -6.6 °F 1.4 °F 67% 30.36 in 10.0 mi NNW 16.1 mph - N/A   Clear